sensor_id;sensor_type;location;lat;lon;timestamp;temperature;humidity
11656;DHT22;5884;43.618;1.438;2023-01-16T05:45:53;6.40;99.90
11656;DHT22;5884;43.618;1.438;2023-01-16T05:48:20;6.40;99.90
11656;DHT22;5884;43.618;1.438;2023-01-16T05:50:49;6.40;99.90
11656;DHT22;5884;43.618;1.438;2023-01-16T05:53:16;6.40;99.90
11656;DHT22;5884;43.618;1.438;2023-01-16T05:55:45;6.50;99.90
11656;DHT22;5884;43.618;1.438;2023-01-16T05:58:15;6.50;99.90
11656;DHT22;5884;43.618;1.438;2023-01-16T06:00:43;6.60;99.90
11656;DHT22;5884;43.618;1.438;2023-01-16T06:03:12;6.70;99.90
11656;DHT22;5884;43.618;1.438;2023-01-16T06:05:41;6.70;99.90
11656;DHT22;5884;43.618;1.438;2023-01-16T06:08:09;6.80;99.90
11656;DHT22;5884;43.618;1.438;2023-01-16T06:10:36;6.90;99.90
11656;DHT22;5884;43.618;1.438;2023-01-16T06:13:04;6.90;99.90
11656;DHT22;5884;43.618;1.438;2023-01-16T06:15:31;6.90;99.90
11656;DHT22;5884;43.618;1.438;2023-01-16T06:17:58;6.90;99.90
11656;DHT22;5884;43.618;1.438;2023-01-16T06:20:27;6.90;99.90
11656;DHT22;5884;43.618;1.438;2023-01-16T06:22:54;6.90;99.90
11656;DHT22;5884;43.618;1.438;2023-01-16T06:25:21;6.80;99.90
11656;DHT22;5884;43.618;1.438;2023-01-16T06:27:49;6.80;99.90
11656;DHT22;5884;43.618;1.438;2023-01-16T06:30:17;6.80;99.90
11656;DHT22;5884;43.618;1.438;2023-01-16T06:32:47;6.80;99.90
11656;DHT22;5884;43.618;1.438;2023-01-16T06:35:15;6.80;99.90
11656;DHT22;5884;43.618;1.438;2023-01-16T06:37:44;6.80;99.90
11656;DHT22;5884;43.618;1.438;2023-01-16T06:40:11;6.80;99.90
11656;DHT22;5884;43.618;1.438;2023-01-16T06:42:39;6.80;99.90
11656;DHT22;5884;43.618;1.438;2023-01-16T06:45:07;6.80;99.90
11656;DHT22;5884;43.618;1.438;2023-01-16T06:47:34;6.70;99.90
11656;DHT22;5884;43.618;1.438;2023-01-16T06:50:02;6.70;99.90
11656;DHT22;5884;43.618;1.438;2023-01-16T06:52:29;6.70;99.90
11656;DHT22;5884;43.618;1.438;2023-01-16T06:54:58;6.70;99.90
11656;DHT22;5884;43.618;1.438;2023-01-16T06:57:25;6.70;99.90
11656;DHT22;5884;43.618;1.438;2023-01-16T06:59:52;6.70;99.90
11656;DHT22;5884;43.618;1.438;2023-01-16T07:02:20;6.70;99.90
11656;DHT22;5884;43.618;1.438;2023-01-16T07:04:47;6.70;99.90
11656;DHT22;5884;43.618;1.438;2023-01-16T07:07:14;6.70;99.90
11656;DHT22;5884;43.618;1.438;2023-01-16T07:09:42;6.70;99.90
11656;DHT22;5884;43.618;1.438;2023-01-16T07:12:10;6.70;99.90
11656;DHT22;5884;43.618;1.438;2023-01-16T07:14:37;6.70;99.90
11656;DHT22;5884;43.618;1.438;2023-01-16T07:17:22;6.70;99.90
11656;DHT22;5884;43.618;1.438;2023-01-16T07:20:10;6.70;99.90
11656;DHT22;5884;43.618;1.438;2023-01-16T07:22:55;6.70;99.90
11656;DHT22;5884;43.618;1.438;2023-01-16T07:25:26;6.80;99.90
11656;DHT22;5884;43.618;1.438;2023-01-16T07:27:59;6.70;99.90
11656;DHT22;5884;43.618;1.438;2023-01-16T07:30:26;6.70;99.90
11656;DHT22;5884;43.618;1.438;2023-01-16T07:32:54;6.80;99.90
11656;DHT22;5884;43.618;1.438;2023-01-16T07:35:21;6.70;99.90
11656;DHT22;5884;43.618;1.438;2023-01-16T07:37:48;6.80;99.90
11656;DHT22;5884;43.618;1.438;2023-01-16T07:40:17;6.80;99.90
11656;DHT22;5884;43.618;1.438;2023-01-16T07:42:45;6.80;99.90
11656;DHT22;5884;43.618;1.438;2023-01-16T07:45:13;6.80;99.90
11656;DHT22;5884;43.618;1.438;2023-01-16T07:47:41;6.80;99.90
11656;DHT22;5884;43.618;1.438;2023-01-16T07:50:09;6.80;99.90
11656;DHT22;5884;43.618;1.438;2023-01-16T07:52:36;6.80;99.90
11656;DHT22;5884;43.618;1.438;2023-01-16T07:55:04;6.90;99.90
11656;DHT22;5884;43.618;1.438;2023-01-16T07:57:35;6.90;99.90
11656;DHT22;5884;43.618;1.438;2023-01-16T08:00:03;6.90;99.90
11656;DHT22;5884;43.618;1.438;2023-01-16T08:02:33;7.00;99.90
11656;DHT22;5884;43.618;1.438;2023-01-16T08:05:00;7.00;99.90
11656;DHT22;5884;43.618;1.438;2023-01-16T08:07:27;7.00;99.90
11656;DHT22;5884;43.618;1.438;2023-01-16T08:09:55;7.00;99.90
11656;DHT22;5884;43.618;1.438;2023-01-16T08:12:22;7.00;99.90
11656;DHT22;5884;43.618;1.438;2023-01-16T08:14:50;7.10;99.90
11656;DHT22;5884;43.618;1.438;2023-01-16T08:17:17;7.10;99.90
11656;DHT22;5884;43.618;1.438;2023-01-16T08:19:46;7.10;99.90
11656;DHT22;5884;43.618;1.438;2023-01-16T08:22:13;7.10;99.90
11656;DHT22;5884;43.618;1.438;2023-01-16T08:24:40;7.10;99.90
11656;DHT22;5884;43.618;1.438;2023-01-16T08:27:07;7.10;99.90
11656;DHT22;5884;43.618;1.438;2023-01-16T08:29:35;7.20;99.90
11656;DHT22;5884;43.618;1.438;2023-01-16T08:32:02;7.10;99.90
11656;DHT22;5884;43.618;1.438;2023-01-16T08:34:29;7.10;99.90
11656;DHT22;5884;43.618;1.438;2023-01-16T08:36:58;7.00;99.90
11656;DHT22;5884;43.618;1.438;2023-01-16T08:39:27;7.00;99.90
11656;DHT22;5884;43.618;1.438;2023-01-16T08:41:55;7.00;99.90
11656;DHT22;5884;43.618;1.438;2023-01-16T08:44:39;7.00;99.90
11656;DHT22;5884;43.618;1.438;2023-01-16T08:47:24;7.00;99.90
11656;DHT22;5884;43.618;1.438;2023-01-16T08:50:11;7.00;99.90
11656;DHT22;5884;43.618;1.438;2023-01-16T08:52:57;7.10;99.90
11656;DHT22;5884;43.618;1.438;2023-01-16T08:55:25;7.10;99.90
11656;DHT22;5884;43.618;1.438;2023-01-16T08:57:53;7.10;99.90
11656;DHT22;5884;43.618;1.438;2023-01-16T09:00:22;7.10;99.90
11656;DHT22;5884;43.618;1.438;2023-01-16T09:02:50;7.20;99.90
11656;DHT22;5884;43.618;1.438;2023-01-16T09:05:17;7.20;99.90
11656;DHT22;5884;43.618;1.438;2023-01-16T09:07:45;7.20;99.90
11656;DHT22;5884;43.618;1.438;2023-01-16T09:10:14;7.10;99.90
11656;DHT22;5884;43.618;1.438;2023-01-16T09:12:42;7.10;99.90
11656;DHT22;5884;43.618;1.438;2023-01-16T09:15:27;7.10;99.90
11656;DHT22;5884;43.618;1.438;2023-01-16T09:17:55;7.20;99.90
11656;DHT22;5884;43.618;1.438;2023-01-16T09:20:22;7.20;99.90
11656;DHT22;5884;43.618;1.438;2023-01-16T09:22:56;7.20;99.90
11656;DHT22;5884;43.618;1.438;2023-01-16T09:25:26;7.20;99.90
11656;DHT22;5884;43.618;1.438;2023-01-16T09:27:57;7.30;99.90
11656;DHT22;5884;43.618;1.438;2023-01-16T09:30:25;7.20;99.90
11656;DHT22;5884;43.618;1.438;2023-01-16T09:32:53;7.30;99.90
11656;DHT22;5884;43.618;1.438;2023-01-16T09:35:20;7.40;99.90
11656;DHT22;5884;43.618;1.438;2023-01-16T09:37:48;7.30;99.90
11656;DHT22;5884;43.618;1.438;2023-01-16T09:40:17;7.30;99.90
11656;DHT22;5884;43.618;1.438;2023-01-16T09:43:08;7.30;99.90
11656;DHT22;5884;43.618;1.438;2023-01-16T09:46:10;7.30;99.90
11656;DHT22;5884;43.618;1.438;2023-01-16T09:48:55;7.20;99.90
11656;DHT22;5884;43.618;1.438;2023-01-16T09:51:30;7.20;99.90
11656;DHT22;5884;43.618;1.438;2023-01-16T09:54:12;7.30;99.90
11656;DHT22;5884;43.618;1.438;2023-01-16T09:57:01;7.30;99.90
11656;DHT22;5884;43.618;1.438;2023-01-16T09:59:50;7.30;99.90
11656;DHT22;5884;43.618;1.438;2023-01-16T10:02:24;7.40;99.90
11656;DHT22;5884;43.618;1.438;2023-01-16T10:04:54;7.40;99.90
11656;DHT22;5884;43.618;1.438;2023-01-16T10:07:39;7.40;99.90
11656;DHT22;5884;43.618;1.438;2023-01-16T10:10:23;7.50;99.90
11656;DHT22;5884;43.618;1.438;2023-01-16T10:13:07;7.40;99.90
11656;DHT22;5884;43.618;1.438;2023-01-16T10:15:45;7.40;99.90
11656;DHT22;5884;43.618;1.438;2023-01-16T10:18:27;7.50;99.90
11656;DHT22;5884;43.618;1.438;2023-01-16T10:21:17;7.50;99.90
11656;DHT22;5884;43.618;1.438;2023-01-16T10:24:00;7.50;99.90
11656;DHT22;5884;43.618;1.438;2023-01-16T10:26:30;7.50;99.90
11656;DHT22;5884;43.618;1.438;2023-01-16T10:29:17;7.50;99.90
11656;DHT22;5884;43.618;1.438;2023-01-16T10:31:56;7.50;99.90
11656;DHT22;5884;43.618;1.438;2023-01-16T10:34:28;7.50;99.90
11656;DHT22;5884;43.618;1.438;2023-01-16T10:36:59;7.40;99.90
11656;DHT22;5884;43.618;1.438;2023-01-16T10:39:31;7.40;99.90
11656;DHT22;5884;43.618;1.438;2023-01-16T10:42:10;7.40;99.90
11656;DHT22;5884;43.618;1.438;2023-01-16T10:45:01;7.50;99.90
11656;DHT22;5884;43.618;1.438;2023-01-16T10:47:58;7.60;99.90
11656;DHT22;5884;43.618;1.438;2023-01-16T10:50:43;7.70;99.90
11656;DHT22;5884;43.618;1.438;2023-01-16T10:53:13;7.80;99.90
11656;DHT22;5884;43.618;1.438;2023-01-16T10:55:44;7.90;99.90
11656;DHT22;5884;43.618;1.438;2023-01-16T10:58:23;7.90;99.90
11656;DHT22;5884;43.618;1.438;2023-01-16T11:00:56;8.10;99.90
11656;DHT22;5884;43.618;1.438;2023-01-16T11:03:33;8.00;99.90
11656;DHT22;5884;43.618;1.438;2023-01-16T11:06:10;8.00;99.90
11656;DHT22;5884;43.618;1.438;2023-01-16T11:08:41;8.00;99.90
11656;DHT22;5884;43.618;1.438;2023-01-16T11:11:12;8.00;99.90
11656;DHT22;5884;43.618;1.438;2023-01-16T11:13:58;8.00;99.90
11656;DHT22;5884;43.618;1.438;2023-01-16T11:16:45;8.00;99.90
11656;DHT22;5884;43.618;1.438;2023-01-16T11:19:40;8.00;99.90
11656;DHT22;5884;43.618;1.438;2023-01-16T11:22:23;8.00;99.90
11656;DHT22;5884;43.618;1.438;2023-01-16T11:24:54;8.00;99.90
11656;DHT22;5884;43.618;1.438;2023-01-16T11:27:26;8.00;99.90
11656;DHT22;5884;43.618;1.438;2023-01-16T11:29:56;8.10;99.90
11656;DHT22;5884;43.618;1.438;2023-01-16T11:32:24;8.00;99.90
11656;DHT22;5884;43.618;1.438;2023-01-16T11:34:57;8.00;99.90
11656;DHT22;5884;43.618;1.438;2023-01-16T11:37:27;8.00;99.90
11656;DHT22;5884;43.618;1.438;2023-01-16T11:40:02;8.00;99.90
11656;DHT22;5884;43.618;1.438;2023-01-16T11:42:33;8.10;99.90
11656;DHT22;5884;43.618;1.438;2023-01-16T11:45:20;8.10;99.90
11656;DHT22;5884;43.618;1.438;2023-01-16T11:48:08;8.20;99.90
11656;DHT22;5884;43.618;1.438;2023-01-16T11:50:58;8.20;99.90
11656;DHT22;5884;43.618;1.438;2023-01-16T11:53:31;8.30;99.90
11656;DHT22;5884;43.618;1.438;2023-01-16T11:56:28;8.40;99.90
11656;DHT22;5884;43.618;1.438;2023-01-16T12:03:11;8.50;99.90
11656;DHT22;5884;43.618;1.438;2023-01-16T12:05:59;8.60;99.90
11656;DHT22;5884;43.618;1.438;2023-01-16T12:11:52;8.70;99.90
11656;DHT22;5884;43.618;1.438;2023-01-16T12:14:58;8.80;99.90
11656;DHT22;5884;43.618;1.438;2023-01-16T12:17:36;8.80;99.90
11656;DHT22;5884;43.618;1.438;2023-01-16T12:20:30;8.80;99.90
11656;DHT22;5884;43.618;1.438;2023-01-16T12:23:16;8.80;99.90
11656;DHT22;5884;43.618;1.438;2023-01-16T12:25:58;8.70;99.90
11656;DHT22;5884;43.618;1.438;2023-01-16T12:28:38;8.70;99.90
11656;DHT22;5884;43.618;1.438;2023-01-16T12:31:36;8.70;99.90
11656;DHT22;5884;43.618;1.438;2023-01-16T12:34:44;8.70;99.90
11656;DHT22;5884;43.618;1.438;2023-01-16T12:37:51;8.70;99.90
11656;DHT22;5884;43.618;1.438;2023-01-16T12:40:51;8.70;99.90
11656;DHT22;5884;43.618;1.438;2023-01-16T12:43:55;8.60;99.90
11656;DHT22;5884;43.618;1.438;2023-01-16T12:46:36;8.50;99.90
11656;DHT22;5884;43.618;1.438;2023-01-16T12:49:20;8.60;99.90
11656;DHT22;5884;43.618;1.438;2023-01-16T12:52:06;8.70;99.90
11656;DHT22;5884;43.618;1.438;2023-01-16T12:54:58;8.70;99.90
11656;DHT22;5884;43.618;1.438;2023-01-16T12:57:58;8.80;99.90
11656;DHT22;5884;43.618;1.438;2023-01-16T13:00:36;8.70;99.90
11656;DHT22;5884;43.618;1.438;2023-01-16T13:03:17;8.90;99.90
11656;DHT22;5884;43.618;1.438;2023-01-16T13:05:52;8.90;99.90
11656;DHT22;5884;43.618;1.438;2023-01-16T13:08:25;8.90;99.90
11656;DHT22;5884;43.618;1.438;2023-01-16T13:10:57;8.90;99.90
11656;DHT22;5884;43.618;1.438;2023-01-16T13:13:50;8.90;99.90
11656;DHT22;5884;43.618;1.438;2023-01-16T13:16:22;9.00;99.90
11656;DHT22;5884;43.618;1.438;2023-01-16T13:18:56;8.90;99.90
11656;DHT22;5884;43.618;1.438;2023-01-16T13:21:27;8.80;99.90
11656;DHT22;5884;43.618;1.438;2023-01-16T13:23:58;8.60;99.90
11656;DHT22;5884;43.618;1.438;2023-01-16T13:26:28;8.50;99.90
11656;DHT22;5884;43.618;1.438;2023-01-16T13:29:05;8.40;99.90
11656;DHT22;5884;43.618;1.438;2023-01-16T13:31:39;8.30;99.90
11656;DHT22;5884;43.618;1.438;2023-01-16T13:34:14;8.30;99.90
11656;DHT22;5884;43.618;1.438;2023-01-16T13:37:05;8.30;99.90
11656;DHT22;5884;43.618;1.438;2023-01-16T13:40:09;8.30;99.90
11656;DHT22;5884;43.618;1.438;2023-01-16T13:42:50;8.30;99.90
11656;DHT22;5884;43.618;1.438;2023-01-16T13:45:28;8.20;99.90
11656;DHT22;5884;43.618;1.438;2023-01-16T13:48:15;8.20;99.90
11656;DHT22;5884;43.618;1.438;2023-01-16T13:50:50;8.10;99.90
11656;DHT22;5884;43.618;1.438;2023-01-16T13:53:19;8.10;99.90
11656;DHT22;5884;43.618;1.438;2023-01-16T13:55:49;8.00;99.90
11656;DHT22;5884;43.618;1.438;2023-01-16T13:58:19;7.90;99.90
11656;DHT22;5884;43.618;1.438;2023-01-16T14:00:57;7.90;99.90
11656;DHT22;5884;43.618;1.438;2023-01-16T14:03:26;7.90;99.90
11656;DHT22;5884;43.618;1.438;2023-01-16T14:06:14;7.80;99.90
11656;DHT22;5884;43.618;1.438;2023-01-16T14:08:46;7.80;99.90
11656;DHT22;5884;43.618;1.438;2023-01-16T14:11:58;7.80;99.90
11656;DHT22;5884;43.618;1.438;2023-01-16T14:14:50;7.80;99.90
11656;DHT22;5884;43.618;1.438;2023-01-16T14:18:12;7.80;99.90
11656;DHT22;5884;43.618;1.438;2023-01-16T14:20:43;7.80;99.90
11656;DHT22;5884;43.618;1.438;2023-01-16T14:23:19;7.80;99.90
11656;DHT22;5884;43.618;1.438;2023-01-16T14:26:08;7.90;99.90
11656;DHT22;5884;43.618;1.438;2023-01-16T14:28:40;7.80;99.90
11656;DHT22;5884;43.618;1.438;2023-01-16T14:31:22;7.90;99.90
11656;DHT22;5884;43.618;1.438;2023-01-16T14:33:54;7.80;99.90
11656;DHT22;5884;43.618;1.438;2023-01-16T14:36:25;7.80;99.90
11656;DHT22;5884;43.618;1.438;2023-01-16T14:38:53;7.70;99.90
11656;DHT22;5884;43.618;1.438;2023-01-16T14:41:26;7.70;99.90
11656;DHT22;5884;43.618;1.438;2023-01-16T14:44:16;7.60;99.90
11656;DHT22;5884;43.618;1.438;2023-01-16T14:47:09;7.50;99.90
11656;DHT22;5884;43.618;1.438;2023-01-16T14:50:06;7.40;99.90
11656;DHT22;5884;43.618;1.438;2023-01-16T14:53:04;7.40;99.90
11656;DHT22;5884;43.618;1.438;2023-01-16T14:56:05;7.40;99.90
11656;DHT22;5884;43.618;1.438;2023-01-16T14:58:41;7.30;99.90
11656;DHT22;5884;43.618;1.438;2023-01-16T15:01:18;7.30;99.90
11656;DHT22;5884;43.618;1.438;2023-01-16T15:04:06;7.30;99.90
11656;DHT22;5884;43.618;1.438;2023-01-16T15:06:39;7.30;99.90
11656;DHT22;5884;43.618;1.438;2023-01-16T15:09:14;7.20;99.90
11656;DHT22;5884;43.618;1.438;2023-01-16T15:11:49;7.30;99.90
11656;DHT22;5884;43.618;1.438;2023-01-16T15:14:19;7.20;99.90
11656;DHT22;5884;43.618;1.438;2023-01-16T15:17:16;7.30;99.90
11656;DHT22;5884;43.618;1.438;2023-01-16T15:20:23;7.30;99.90
11656;DHT22;5884;43.618;1.438;2023-01-16T15:23:22;7.30;99.90
11656;DHT22;5884;43.618;1.438;2023-01-16T15:26:07;7.30;99.90
11656;DHT22;5884;43.618;1.438;2023-01-16T15:28:52;7.30;99.90
11656;DHT22;5884;43.618;1.438;2023-01-16T15:31:28;7.20;99.90
11656;DHT22;5884;43.618;1.438;2023-01-16T15:34:02;7.30;99.90
11656;DHT22;5884;43.618;1.438;2023-01-16T15:36:36;7.20;99.90
11656;DHT22;5884;43.618;1.438;2023-01-16T15:39:18;7.20;99.90
11656;DHT22;5884;43.618;1.438;2023-01-16T15:41:52;7.20;99.90
11656;DHT22;5884;43.618;1.438;2023-01-16T15:44:40;7.20;99.90
11656;DHT22;5884;43.618;1.438;2023-01-16T15:47:57;7.10;99.90
11656;DHT22;5884;43.618;1.438;2023-01-16T15:50:55;7.10;99.90
11656;DHT22;5884;43.618;1.438;2023-01-16T15:53:25;7.10;99.90
11656;DHT22;5884;43.618;1.438;2023-01-16T15:56:02;7.10;99.90
11656;DHT22;5884;43.618;1.438;2023-01-16T15:58:31;7.20;99.90
11656;DHT22;5884;43.618;1.438;2023-01-16T16:01:00;7.10;99.90
11656;DHT22;5884;43.618;1.438;2023-01-16T16:03:30;7.20;99.90
11656;DHT22;5884;43.618;1.438;2023-01-16T16:06:06;7.10;99.90
11656;DHT22;5884;43.618;1.438;2023-01-16T16:08:37;7.20;99.90
11656;DHT22;5884;43.618;1.438;2023-01-16T16:11:13;7.20;99.90
11656;DHT22;5884;43.618;1.438;2023-01-16T16:14:00;7.20;99.90
11656;DHT22;5884;43.618;1.438;2023-01-16T16:16:29;7.20;99.90
11656;DHT22;5884;43.618;1.438;2023-01-16T16:19:29;7.20;99.90
11656;DHT22;5884;43.618;1.438;2023-01-16T16:22:00;7.10;99.90
11656;DHT22;5884;43.618;1.438;2023-01-16T16:24:47;7.10;99.90
11656;DHT22;5884;43.618;1.438;2023-01-16T16:27:16;7.20;99.90
11656;DHT22;5884;43.618;1.438;2023-01-16T16:29:49;7.10;99.90
11656;DHT22;5884;43.618;1.438;2023-01-16T16:32:18;7.10;99.90
11656;DHT22;5884;43.618;1.438;2023-01-16T16:34:51;7.10;99.90
11656;DHT22;5884;43.618;1.438;2023-01-16T16:37:20;7.10;99.90
11656;DHT22;5884;43.618;1.438;2023-01-16T16:39:54;7.00;99.90
11656;DHT22;5884;43.618;1.438;2023-01-16T16:42:55;7.00;99.90
11656;DHT22;5884;43.618;1.438;2023-01-16T16:45:27;7.00;99.90
11656;DHT22;5884;43.618;1.438;2023-01-16T16:51:20;7.00;99.90
11656;DHT22;5884;43.618;1.438;2023-01-16T16:53:52;7.00;99.90
11656;DHT22;5884;43.618;1.438;2023-01-16T16:56:22;7.00;99.90
11656;DHT22;5884;43.618;1.438;2023-01-16T16:58:53;7.00;99.90
11656;DHT22;5884;43.618;1.438;2023-01-16T17:01:22;7.00;99.90
11656;DHT22;5884;43.618;1.438;2023-01-16T17:03:53;6.90;99.90
11656;DHT22;5884;43.618;1.438;2023-01-16T17:06:26;7.00;99.90
11656;DHT22;5884;43.618;1.438;2023-01-16T17:08:55;6.90;99.90
11656;DHT22;5884;43.618;1.438;2023-01-16T17:11:23;6.90;99.90
11656;DHT22;5884;43.618;1.438;2023-01-16T17:13:52;7.00;99.90
11656;DHT22;5884;43.618;1.438;2023-01-16T17:16:21;6.90;99.90
11656;DHT22;5884;43.618;1.438;2023-01-16T17:18:53;6.90;99.90
11656;DHT22;5884;43.618;1.438;2023-01-16T17:21:24;6.90;99.90
11656;DHT22;5884;43.618;1.438;2023-01-16T17:23:51;6.90;99.90
11656;DHT22;5884;43.618;1.438;2023-01-16T17:26:19;6.80;99.90
11656;DHT22;5884;43.618;1.438;2023-01-16T17:28:46;6.80;99.90
11656;DHT22;5884;43.618;1.438;2023-01-16T17:31:18;6.80;99.90
11656;DHT22;5884;43.618;1.438;2023-01-16T17:33:46;6.80;99.90
11656;DHT22;5884;43.618;1.438;2023-01-16T17:36:19;6.80;99.90
11656;DHT22;5884;43.618;1.438;2023-01-16T17:38:48;6.80;99.90
11656;DHT22;5884;43.618;1.438;2023-01-16T17:41:16;6.70;99.90
11656;DHT22;5884;43.618;1.438;2023-01-16T17:43:46;6.70;99.90
11656;DHT22;5884;43.618;1.438;2023-01-16T17:46:32;6.60;99.90
11656;DHT22;5884;43.618;1.438;2023-01-16T17:49:00;6.50;99.90
11656;DHT22;5884;43.618;1.438;2023-01-16T17:51:27;6.50;99.90
11656;DHT22;5884;43.618;1.438;2023-01-16T17:53:54;6.40;99.90
11656;DHT22;5884;43.618;1.438;2023-01-16T17:56:22;6.40;99.90
11656;DHT22;5884;43.618;1.438;2023-01-16T17:58:50;6.50;99.90
11656;DHT22;5884;43.618;1.438;2023-01-16T18:01:24;6.40;99.90
11656;DHT22;5884;43.618;1.438;2023-01-16T18:03:56;6.40;99.90
11656;DHT22;5884;43.618;1.438;2023-01-16T18:06:26;6.50;99.90
11656;DHT22;5884;43.618;1.438;2023-01-16T18:08:55;6.40;99.90
11656;DHT22;5884;43.618;1.438;2023-01-16T18:11:23;6.40;99.90
11656;DHT22;5884;43.618;1.438;2023-01-16T18:14:09;6.40;99.90
11656;DHT22;5884;43.618;1.438;2023-01-16T18:16:54;6.40;99.90
11656;DHT22;5884;43.618;1.438;2023-01-16T18:19:41;6.40;99.90
11656;DHT22;5884;43.618;1.438;2023-01-16T18:22:10;6.40;99.90
11656;DHT22;5884;43.618;1.438;2023-01-16T18:24:39;6.40;99.90
11656;DHT22;5884;43.618;1.438;2023-01-16T18:27:09;6.40;99.90
11656;DHT22;5884;43.618;1.438;2023-01-16T18:29:38;6.40;99.90
11656;DHT22;5884;43.618;1.438;2023-01-16T18:32:07;6.40;99.90
11656;DHT22;5884;43.618;1.438;2023-01-16T18:34:51;6.30;99.90
11656;DHT22;5884;43.618;1.438;2023-01-16T18:37:19;6.30;99.90
11656;DHT22;5884;43.618;1.438;2023-01-16T18:39:48;6.30;99.90
11656;DHT22;5884;43.618;1.438;2023-01-16T18:42:32;6.30;99.90
11656;DHT22;5884;43.618;1.438;2023-01-16T18:45:17;6.30;99.90
11656;DHT22;5884;43.618;1.438;2023-01-16T18:48:02;6.30;99.90
11656;DHT22;5884;43.618;1.438;2023-01-16T18:50:50;6.30;99.90
11656;DHT22;5884;43.618;1.438;2023-01-16T18:53:37;6.20;99.90
11656;DHT22;5884;43.618;1.438;2023-01-16T18:56:26;6.20;99.90
11656;DHT22;5884;43.618;1.438;2023-01-16T18:59:14;6.20;99.90
11656;DHT22;5884;43.618;1.438;2023-01-16T19:02:32;6.20;99.90
11656;DHT22;5884;43.618;1.438;2023-01-16T19:05:05;6.20;99.90
11656;DHT22;5884;43.618;1.438;2023-01-16T19:07:35;6.20;99.90
11656;DHT22;5884;43.618;1.438;2023-01-16T19:10:13;6.10;99.90
11656;DHT22;5884;43.618;1.438;2023-01-16T19:12:43;6.10;99.90
11656;DHT22;5884;43.618;1.438;2023-01-16T19:15:11;6.10;99.90
11656;DHT22;5884;43.618;1.438;2023-01-16T19:17:39;6.10;99.90
11656;DHT22;5884;43.618;1.438;2023-01-16T19:20:11;6.10;99.90
11656;DHT22;5884;43.618;1.438;2023-01-16T19:22:42;6.10;99.90
11656;DHT22;5884;43.618;1.438;2023-01-16T19:25:09;6.10;99.90
11656;DHT22;5884;43.618;1.438;2023-01-16T19:27:37;6.10;99.90
11656;DHT22;5884;43.618;1.438;2023-01-16T19:30:06;6.10;99.90
11656;DHT22;5884;43.618;1.438;2023-01-16T19:32:34;6.10;99.90
11656;DHT22;5884;43.618;1.438;2023-01-16T19:35:02;6.10;99.90
11656;DHT22;5884;43.618;1.438;2023-01-16T19:37:29;6.10;99.90
11656;DHT22;5884;43.618;1.438;2023-01-16T19:39:58;6.00;99.90
11656;DHT22;5884;43.618;1.438;2023-01-16T19:42:28;6.00;99.90
11656;DHT22;5884;43.618;1.438;2023-01-16T19:45:13;6.00;99.90
11656;DHT22;5884;43.618;1.438;2023-01-16T19:47:57;6.10;99.90
11656;DHT22;5884;43.618;1.438;2023-01-16T19:50:28;6.00;99.90
11656;DHT22;5884;43.618;1.438;2023-01-16T19:52:57;6.00;99.90
11656;DHT22;5884;43.618;1.438;2023-01-16T19:55:25;6.00;99.90
11656;DHT22;5884;43.618;1.438;2023-01-16T19:57:52;6.00;99.90
11656;DHT22;5884;43.618;1.438;2023-01-16T20:00:20;6.00;99.90
11656;DHT22;5884;43.618;1.438;2023-01-16T20:02:48;6.00;99.90
11656;DHT22;5884;43.618;1.438;2023-01-16T20:05:15;6.00;99.90
11656;DHT22;5884;43.618;1.438;2023-01-16T20:07:42;5.90;99.90
11656;DHT22;5884;43.618;1.438;2023-01-16T20:10:10;6.00;99.90
11656;DHT22;5884;43.618;1.438;2023-01-16T20:12:48;5.90;99.90
11656;DHT22;5884;43.618;1.438;2023-01-16T20:15:16;6.00;99.90
11656;DHT22;5884;43.618;1.438;2023-01-16T20:17:46;6.00;99.90
11656;DHT22;5884;43.618;1.438;2023-01-16T20:20:34;5.90;99.90
11656;DHT22;5884;43.618;1.438;2023-01-16T20:23:02;6.00;99.90
11656;DHT22;5884;43.618;1.438;2023-01-16T20:25:30;6.00;99.90
11656;DHT22;5884;43.618;1.438;2023-01-16T20:27:58;6.00;99.90
11656;DHT22;5884;43.618;1.438;2023-01-16T20:30:26;6.00;99.90
11656;DHT22;5884;43.618;1.438;2023-01-16T20:33:14;5.90;99.90
11656;DHT22;5884;43.618;1.438;2023-01-16T20:35:43;5.90;99.90
11656;DHT22;5884;43.618;1.438;2023-01-16T20:38:10;5.90;99.90
11656;DHT22;5884;43.618;1.438;2023-01-16T20:40:37;5.90;99.90
11656;DHT22;5884;43.618;1.438;2023-01-16T20:43:08;5.90;99.90
11656;DHT22;5884;43.618;1.438;2023-01-16T20:45:52;5.90;99.90
11656;DHT22;5884;43.618;1.438;2023-01-16T20:48:21;5.90;99.90
11656;DHT22;5884;43.618;1.438;2023-01-16T20:50:50;5.90;99.90
11656;DHT22;5884;43.618;1.438;2023-01-16T20:53:18;5.80;99.90
11656;DHT22;5884;43.618;1.438;2023-01-16T20:55:45;5.90;99.90
11656;DHT22;5884;43.618;1.438;2023-01-16T20:58:15;5.80;99.90
11656;DHT22;5884;43.618;1.438;2023-01-16T21:00:43;5.80;99.90
11656;DHT22;5884;43.618;1.438;2023-01-16T21:03:10;5.90;99.90
11656;DHT22;5884;43.618;1.438;2023-01-16T21:05:38;5.90;99.90
11656;DHT22;5884;43.618;1.438;2023-01-16T21:08:06;5.80;99.90
11656;DHT22;5884;43.618;1.438;2023-01-16T21:10:36;5.70;99.90
11656;DHT22;5884;43.618;1.438;2023-01-16T21:13:03;5.80;99.90
11656;DHT22;5884;43.618;1.438;2023-01-16T21:15:53;5.80;99.90
11656;DHT22;5884;43.618;1.438;2023-01-16T21:18:42;5.80;99.90
11656;DHT22;5884;43.618;1.438;2023-01-16T21:21:27;5.80;99.90
11656;DHT22;5884;43.618;1.438;2023-01-16T21:24:18;5.80;99.90
11656;DHT22;5884;43.618;1.438;2023-01-16T21:26:48;5.80;99.90
11656;DHT22;5884;43.618;1.438;2023-01-16T21:29:17;5.80;99.90
11656;DHT22;5884;43.618;1.438;2023-01-16T21:31:47;5.80;99.90
11656;DHT22;5884;43.618;1.438;2023-01-16T21:34:15;5.70;99.90
11656;DHT22;5884;43.618;1.438;2023-01-16T21:36:42;5.70;99.90
11656;DHT22;5884;43.618;1.438;2023-01-16T21:39:10;5.70;99.90
11656;DHT22;5884;43.618;1.438;2023-01-16T21:41:39;5.80;99.90
11656;DHT22;5884;43.618;1.438;2023-01-16T21:44:26;5.70;99.90
11656;DHT22;5884;43.618;1.438;2023-01-16T21:47:15;5.70;99.90
11656;DHT22;5884;43.618;1.438;2023-01-16T21:49:42;5.70;99.90
11656;DHT22;5884;43.618;1.438;2023-01-16T21:52:12;5.70;99.90
11656;DHT22;5884;43.618;1.438;2023-01-16T21:54:39;5.70;99.90
11656;DHT22;5884;43.618;1.438;2023-01-16T21:57:09;5.70;99.90
11656;DHT22;5884;43.618;1.438;2023-01-16T21:59:37;5.80;99.90
